Latest Weather Observations for Bourke

IDN60801

Issued at 3:35 pm EST Saturday 19 April 2014 (issued every 30 minutes, with the page automatically refreshed every 10 minutes)

About weather observations | Map of weather stations | Latest weather observations for NSW | Other Formats
Station Details ID: 048245 Name: BOURKE AIRPORT AWS Lat: -30.04 Lon: 145.95 Height: 107.3 m
Data from the previous 72 hours. | See also: Recent months at Bourke
Date/Time
EST
Temp
°C
App
Temp
°C
Dew
Point
Rel
Hum
%
Delta-T
°C
Wind Press
QNH
hPa
Press
MSL
hPa
Rain
since 9 am
mm
Dir
 
Spd
km/h
Gust
km/h
Spd
kts
Gust
kts
19/03:30pm 25.0 20.6 7.2 32 9.4 SW 20 30 11 16 1015.5 - 0.0
19/03:00pm 24.8 21.3 7.0 32 9.3 WSW 15 28 8 15 1015.5 1015.2 0.0
19/02:30pm 24.9 21.5 7.5 33 9.2 WSW 15 22 8 12 1015.7 - 0.0
19/02:00pm 24.3 21.1 8.3 36 8.6 SW 15 30 8 16 1016.0 - 0.0
19/01:30pm 24.2 20.9 8.2 36 8.5 WSW 15 26 8 14 1016.3 - 0.0
19/01:00pm 24.2 21.3 8.2 36 8.5 SW 13 24 7 13 1016.8 - 0.0
19/12:30pm 24.6 22.6 10.1 40 8.0 SSW 11 19 6 10 1017.4 - 0.0
19/12:00pm 23.3 20.7 9.3 41 7.6 S 13 19 7 10 1018.0 1017.8 0.0
19/11:30am 22.7 20.0 10.2 45 6.9 S 15 33 8 18 1018.5 - 0.0
19/11:00am 22.7 20.0 10.5 46 6.7 SSE 15 20 8 11 1018.7 - 0.0
19/10:30am 22.0 19.0 10.8 49 6.2 SSE 17 26 9 14 1019.0 - 0.0
19/10:00am 21.1 17.5 10.6 51 5.8 SSE 20 28 11 15 1019.2 - 0.0
19/09:30am 20.1 16.1 10.5 54 5.2 SE 22 30 12 16 1019.3 - 0.0
19/09:00am 18.8 14.7 10.1 57 4.7 SSE 22 30 12 16 1019.4 1019.2 0.0
19/08:30am 17.7 14.5 10.1 61 4.1 SSE 17 32 9 17 1019.4 - 0.0
19/08:00am 16.6 13.4 10.0 65 3.5 S 17 20 9 11 1019.1 - 0.0
19/07:30am 13.9 12.3 8.7 71 2.6 SSW 7 9 4 5 1019.0 - 0.0
19/07:00am 12.7 10.6 8.4 75 2.1 SSW 9 13 5 7 1018.6 - 0.0
19/06:30am 12.6 10.4 7.9 73 2.3 SSW 9 13 5 7 1018.4 - 0.0
19/06:00am 12.6 10.0 7.7 72 2.4 SSW 11 11 6 6 1018.0 1017.8 0.0
19/05:30am 12.8 10.6 7.9 72 2.4 SSW 9 11 5 6 1017.9 - 0.0
19/05:00am 12.6 10.3 7.5 71 2.5 SSW 9 11 5 6 1017.6 - 0.0
19/04:30am 12.8 10.6 7.9 72 2.4 SW 9 11 5 6 1017.3 - 0.0
19/04:00am 12.7 10.1 7.8 72 2.4 SW 11 11 6 6 1017.1 - 0.0
19/03:30am 12.9 10.2 7.4 69 2.7 SW 11 13 6 7 1017.0 - 0.0
19/03:00am 13.7 11.4 7.5 66 3.1 WSW 9 11 5 6 1017.0 1016.8 0.0
19/02:30am 15.1 12.8 7.6 61 3.7 WSW 9 13 5 7 1017.0 - 0.0
19/02:00am 16.3 13.4 8.0 58 4.2 WSW 13 19 7 10 1017.2 - 0.0
19/01:30am 14.9 12.6 7.5 61 3.7 WSW 9 11 5 6 1017.2 - 0.0
19/01:00am 14.8 12.8 6.9 59 3.9 WSW 7 9 4 5 1017.3 - 0.0
19/12:30am 15.8 13.4 7.0 56 4.4 SW 9 11 5 6 1017.2 - 0.0
19/12:00am 16.7 14.3 7.1 53 4.8 WSW 9 13 5 7 1017.3 1017.1 0.0
 
Date/Time
EST
Temp
°C
App
Temp
°C
Dew
Point
Rel
Hum
%
Delta-T
°C
Wind Press
QNH
hPa
Press
MSL
hPa
Rain
since 9 am
mm
Dir
 
Spd
km/h
Gust
km/h
Spd
kts
Gust
kts
18/11:30pm 15.5 12.9 6.2 54 4.5 W 9 13 5 7 1017.3 - 0.0
18/11:00pm 15.6 13.0 6.1 53 4.6 WSW 9 15 5 8 1017.6 - 0.0
18/10:30pm 15.2 12.7 6.5 56 4.2 WNW 9 11 5 6 1017.4 - 0.0
18/10:00pm 13.8 11.8 7.1 64 3.3 NNW 7 9 4 5 1017.3 - 0.0
18/09:30pm 14.9 14.4 7.9 63 3.5 CALM 0 0 0 0 1017.2 - 0.0
18/09:00pm 15.3 14.2 6.8 57 4.2 SSW 2 6 1 3 1017.2 1017.0 0.0
18/08:30pm 16.6 14.5 5.9 49 5.2 SSW 6 6 3 3 1017.1 - 0.0
18/08:00pm 18.7 16.3 5.2 41 6.6 SW 7 9 4 5 1017.0 - 0.0
18/07:30pm 18.9 16.4 4.7 39 6.9 SW 7 9 4 5 1016.9 - 0.0
18/07:00pm 19.5 16.8 3.6 35 7.5 W 7 9 4 5 1016.7 - 0.0
18/06:30pm 22.5 19.8 3.6 29 9.2 W 7 9 4 5 1016.4 - 0.0
18/06:00pm 23.8 21.0 3.2 26 10.0 WSW 7 13 4 7 1016.3 1016.0 0.0
18/05:30pm 25.5 22.0 3.5 24 10.9 WSW 11 15 6 8 1016.2 - 0.0
18/05:00pm 26.5 22.5 3.1 22 11.6 WSW 13 20 7 11 1016.0 - 0.0
18/04:30pm 26.8 22.1 3.3 22 11.7 WSW 17 24 9 13 1015.9 - 0.0
18/04:00pm 26.8 21.7 3.3 22 11.7 WSW 19 30 10 16 1015.9 - 0.0
18/03:30pm 26.8 22.5 3.3 22 11.7 WSW 15 24 8 13 1015.9 - 0.0
18/03:00pm 26.5 22.0 2.4 21 11.8 SW 15 26 8 14 1016.1 1015.8 0.0
18/02:30pm 27.1 21.8 2.9 21 12.0 SW 20 30 11 16 1016.3 - 0.0
18/02:00pm 26.9 22.5 4.6 24 11.4 SW 17 28 9 15 1016.5 - 0.0
18/01:30pm 26.8 23.1 4.6 24 11.3 W 13 26 7 14 1016.6 - 0.0
18/01:00pm 26.2 22.6 5.2 26 10.8 WSW 13 24 7 13 1017.2 - 0.0
18/12:30pm 26.0 21.6 4.5 25 10.9 WSW 17 30 9 16 1017.7 - 0.0
18/12:00pm 25.9 22.6 4.4 25 10.8 WSW 11 20 6 11 1018.2 1018.0 0.0
18/11:30am 25.4 22.0 4.0 25 10.7 WNW 11 17 6 9 1018.7 - 0.0
18/11:00am 24.8 21.6 5.1 28 10.0 W 11 19 6 10 1019.2 - 0.0
18/10:30am 23.8 19.9 5.2 30 9.4 WNW 15 26 8 14 1019.5 - 0.0
18/10:00am 23.0 19.6 5.9 33 8.7 NNW 13 19 7 10 1019.8 - 0.0
18/09:30am 21.9 19.4 6.6 37 7.8 NW 9 13 5 7 1019.9 - 0.0
18/09:00am 19.7 19.0 7.1 44 6.4 CALM 0 6 0 3 1020.0 1019.7 0.0
18/08:30am 16.8 16.3 7.7 55 4.6 CALM 0 4 0 2 1019.8 - 0.0
18/08:00am 14.5 14.0 7.8 64 3.3 CALM 0 4 0 2 1019.6 - 0.0
18/07:30am 12.1 11.7 8.2 77 1.9 CALM 0 0 0 0 1019.5 - 0.0
18/07:00am 9.5 8.8 6.9 84 1.2 CALM 0 0 0 0 1019.3 - 0.0
18/06:30am 8.9 8.0 6.0 82 1.3 CALM 0 0 0 0 1019.1 - 0.0
18/06:00am 8.8 7.9 6.1 83 1.2 CALM 0 0 0 0 1018.8 1018.6 0.0
18/05:30am 9.2 8.4 6.3 82 1.3 CALM 0 0 0 0 1018.8 - 0.0
18/05:00am 9.1 8.2 6.2 82 1.3 CALM 0 0 0 0 1018.8 - 0.0
18/04:30am 9.5 8.6 6.2 80 1.5 CALM 0 0 0 0 1018.7 - 0.0
18/04:00am 9.7 8.8 6.2 79 1.6 CALM 0 0 0 0 1018.7 - 0.0
18/03:30am 9.9 9.0 6.2 78 1.7 CALM 0 0 0 0 1018.7 - 0.0
18/03:00am 10.5 8.4 5.9 73 2.1 SW 6 7 3 4 1018.8 1018.6 0.0
18/02:30am 12.1 9.6 6.6 69 2.6 SW 9 11 5 6 1019.0 - 0.0
18/02:00am 10.6 8.4 6.2 74 2.1 SW 7 9 4 5 1019.0 - 0.0
18/01:30am 11.4 9.1 5.7 68 2.7 WSW 7 9 4 5 1019.2 - 0.0
18/01:00am 11.2 8.5 5.7 69 2.6 WSW 9 11 5 6 1019.3 - 0.0
18/12:30am 11.7 9.6 6.0 68 2.7 WSW 6 7 3 4 1019.2 - 0.0
18/12:00am 13.1 10.1 6.0 62 3.4 SW 11 13 6 7 1019.4 1019.2 0.0
 
Date/Time
EST
Temp
°C
App
Temp
°C
Dew
Point
Rel
Hum
%
Delta-T
°C
Wind Press
QNH
hPa
Press
MSL
hPa
Rain
since 9 am
mm
Dir
 
Spd
km/h
Gust
km/h
Spd
kts
Gust
kts
17/11:30pm 12.1 11.2 6.2 67 2.8 CALM 0 0 0 0 1019.4 - 0.0
17/11:00pm 12.5 11.6 5.9 64 3.1 CALM 0 0 0 0 1019.5 - 0.0
17/10:30pm 13.0 12.2 6.6 65 3.1 CALM 0 0 0 0 1019.8 - 0.0
17/10:00pm 13.3 12.6 7.1 66 3.0 CALM 0 0 0 0 1019.8 - 0.0
17/09:30pm 13.5 12.9 7.3 66 3.0 CALM 0 0 0 0 1019.6 - 0.0
17/09:00pm 14.0 13.4 7.3 64 3.3 CALM 0 4 0 2 1019.5 1019.3 0.0
17/08:30pm 15.6 13.6 6.1 53 4.6 S 6 7 3 4 1019.4 - 0.0
17/08:00pm 17.3 14.5 5.3 45 5.8 S 9 9 5 5 1019.3 - 0.0
17/07:30pm 17.7 15.1 5.9 46 5.8 SSE 9 9 5 5 1018.9 - 0.0
17/07:00pm 19.2 16.3 4.9 39 7.0 S 9 11 5 6 1018.6 - 0.0
17/06:30pm 21.7 18.7 3.9 31 8.6 S 9 11 5 6 1018.4 - 0.0
17/06:00pm 23.0 19.9 3.5 28 9.5 S 9 11 5 6 1018.1 1017.9 0.0
17/05:30pm 25.0 21.1 3.6 25 10.6 S 13 17 7 9 1017.9 - 0.0
17/05:00pm 26.0 22.6 3.9 24 11.1 SSW 11 17 6 9 1017.7 - 0.0
17/04:30pm 26.7 23.0 4.5 24 11.3 SW 13 20 7 11 1017.6 - 0.0
17/04:00pm 26.9 23.1 5.8 26 11.0 SSW 15 20 8 11 1017.6 - 0.0
17/03:30pm 26.7 21.7 4.5 24 11.3 S 20 30 11 16 1017.8 - 0.0
17/03:00pm 27.0 22.0 4.7 24 11.4 S 20 30 11 16 1017.9 1017.7 0.0
17/02:30pm 26.2 22.6 5.2 26 10.8 S 13 22 7 12 1018.0 - 0.0
17/02:00pm 25.8 21.7 4.3 25 10.8 SW 15 22 8 12 1018.2 - 0.0
17/01:30pm 26.0 21.4 5.6 27 10.5 S 19 28 10 15 1018.6 - 0.0
17/01:00pm 25.3 21.5 6.0 29 10.0 SW 15 24 8 13 1018.9 - 0.0
17/12:30pm 24.8 21.2 5.1 28 10.0 S 13 19 7 10 1019.4 - 0.0
17/12:00pm 24.7 21.6 5.5 29 9.8 S 11 26 6 14 1020.1 1019.8 0.0
17/11:30am 24.3 20.7 5.1 29 9.7 SSW 13 19 7 10 1020.6 - 0.0
17/11:00am 24.2 21.4 5.1 29 9.6 S 9 19 5 10 1020.9 - 0.0
17/10:30am 24.0 21.1 6.3 32 9.1 SE 11 19 6 10 1021.1 - 0.0
17/10:00am 22.9 19.5 5.8 33 8.7 ESE 13 19 7 10 1021.1 - 0.0
17/09:30am 21.6 18.3 6.3 37 7.8 ESE 13 17 7 9 1021.3 - 0.0
17/09:00am 20.3 17.3 7.7 44 6.5 SE 13 17 7 9 1021.2 1020.9 0.0
17/08:30am 18.0 15.4 7.7 51 5.3 SE 11 17 6 9 1020.9 - 0.0
17/08:00am 15.5 13.1 8.5 63 3.6 SSE 11 13 6 7 1020.7 - 0.0
17/07:30am 13.3 11.9 9.7 79 1.9 SSE 7 7 4 4 1020.4 - 0.0
17/07:00am 9.5 8.1 7.3 86 1.0 S 4 6 2 3 1019.9 - 0.0
17/06:30am 9.3 7.3 6.4 82 1.4 S 6 7 3 4 1019.4 - 0.0
17/06:00am 10.6 8.7 7.5 81 1.5 S 7 9 4 5 1019.1 1018.9 0.0
17/05:30am 10.1 8.3 7.0 81 1.5 S 6 7 3 4 1018.9 - 0.0
17/05:00am 10.7 9.0 7.4 80 1.6 S 6 7 3 4 1018.6 - 0.0
17/04:30am 11.0 9.1 6.9 76 2.0 S 6 7 3 4 1018.6 - 0.0
17/04:00am 12.3 10.5 7.8 74 2.2 SSW 7 7 4 4 1018.5 - 0.0
17/03:30am 12.6 10.8 7.3 70 2.6 SSE 6 7 3 4 1018.3 - 0.0
17/03:00am 13.9 11.8 8.3 69 2.8 SE 9 11 5 6 1018.1 1017.9 0.0
17/02:30am 14.1 11.7 8.5 69 2.8 ESE 11 13 6 7 1018.2 - 0.0
17/02:00am 13.2 11.1 8.1 71 2.5 SE 9 11 5 6 1018.5 - 0.0
17/01:30am 12.7 10.9 7.0 68 2.8 SE 6 7 3 4 1018.8 - 0.0
17/01:00am 15.0 13.1 7.5 61 3.7 SE 7 9 4 5 1018.8 - 0.0
17/12:30am 15.6 13.4 7.9 60 3.9 SE 9 11 5 6 1018.9 - 0.0
17/12:00am 16.1 13.8 7.6 57 4.3 SSE 9 11 5 6 1018.8 1018.6 0.0
 
Date/Time
EST
Temp
°C
App
Temp
°C
Dew
Point
Rel
Hum
%
Delta-T
°C
Wind Press
QNH
hPa
Press
MSL
hPa
Rain
since 9 am
mm
Dir
 
Spd
km/h
Gust
km/h
Spd
kts
Gust
kts
16/11:30pm 16.3 13.7 7.8 57 4.3 SSE 11 13 6 7 1018.7 - 0.0
16/11:00pm 16.9 14.2 7.5 54 4.7 SSE 11 13 6 7 1018.8 - 0.0
16/10:30pm 17.2 14.6 7.8 54 4.8 SE 11 13 6 7 1018.9 - 0.0
16/10:00pm 17.8 15.1 7.2 50 5.3 SSE 11 15 6 8 1018.8 - 0.0
16/09:30pm 18.2 15.4 7.0 48 5.6 S 11 15 6 8 1018.6 - 0.0
16/09:00pm 18.7 16.0 7.5 48 5.7 S 11 15 6 8 1018.6 1018.4 0.0
16/08:30pm 18.3 15.9 6.8 47 5.8 SSE 9 11 5 6 1018.0 - 0.0
16/08:00pm 19.4 16.5 6.5 43 6.5 SSE 11 13 6 7 1017.6 - 0.0
16/07:30pm 21.0 17.3 6.2 38 7.5 SSE 15 17 8 9 1017.4 - 0.0
16/07:00pm 21.2 17.9 6.3 38 7.5 S 13 17 7 9 1017.3 - 0.0
16/06:30pm 21.5 18.5 6.2 37 7.8 S 11 15 6 8 1017.1 - 0.0
16/06:00pm 22.6 20.0 6.0 34 8.4 S 9 13 5 7 1016.8 1016.5 0.0
16/05:30pm 24.4 21.1 6.2 31 9.4 SSE 13 17 7 9 1016.4 - 0.0
16/05:00pm 24.8 21.0 5.6 29 9.8 S 15 20 8 11 1016.2 - 0.0
16/04:30pm 25.1 21.8 6.3 30 9.8 SSW 13 19 7 10 1016.2 - 0.0
16/04:00pm 25.9 22.2 6.5 29 10.2 SSE 15 24 8 13 1016.1 - 0.0

Other Formats:

Comma delimited format used in spreadsheet applications
http://www.bom.gov.au/fwo/IDN60801/IDN60801.94703.axf

JavaScript Object Notation format (JSON) in row-major order
http://www.bom.gov.au/fwo/IDN60801/IDN60801.94703.json